sensor_id;sensor_type;location;lat;lon;timestamp;P1;durP1;ratioP1;P2;durP2;ratioP2
15474;SDS011;7839;50.462;9.678;2023-01-15T00:05:13;0.23;;;0.23;;
15474;SDS011;7839;50.462;9.678;2023-01-15T00:11:53;0.40;;;0.40;;
15474;SDS011;7839;50.462;9.678;2023-01-15T00:18:34;0.20;;;0.20;;
15474;SDS011;7839;50.462;9.678;2023-01-15T00:25:15;0.20;;;0.20;;
15474;SDS011;7839;50.462;9.678;2023-01-15T00:32:14;0.17;;;0.10;;
15474;SDS011;7839;50.462;9.678;2023-01-15T00:38:54;0.30;;;0.20;;
15474;SDS011;7839;50.462;9.678;2023-01-15T00:45:34;0.30;;;0.20;;
15474;SDS011;7839;50.462;9.678;2023-01-15T00:52:15;0.20;;;0.20;;
15474;SDS011;7839;50.462;9.678;2023-01-15T00:58:55;0.20;;;0.20;;
15474;SDS011;7839;50.462;9.678;2023-01-15T01:05:35;0.20;;;0.10;;
15474;SDS011;7839;50.462;9.678;2023-01-15T01:12:15;0.07;;;0.07;;
15474;SDS011;7839;50.462;9.678;2023-01-15T01:18:56;0.30;;;0.10;;
15474;SDS011;7839;50.462;9.678;2023-01-15T01:25:37;0.00;;;0.00;;
15474;SDS011;7839;50.462;9.678;2023-01-15T01:32:18;0.00;;;0.00;;
15474;SDS011;7839;50.462;9.678;2023-01-15T01:38:59;0.23;;;0.10;;
15474;SDS011;7839;50.462;9.678;2023-01-15T01:45:39;0.40;;;0.17;;
15474;SDS011;7839;50.462;9.678;2023-01-15T01:52:20;0.10;;;0.10;;
15474;SDS011;7839;50.462;9.678;2023-01-15T01:59:03;0.00;;;0.00;;
15474;SDS011;7839;50.462;9.678;2023-01-15T02:05:45;0.03;;;0.03;;
15474;SDS011;7839;50.462;9.678;2023-01-15T02:12:36;0.00;;;0.00;;
15474;SDS011;7839;50.462;9.678;2023-01-15T02:33:01;0.30;;;0.20;;
15474;SDS011;7839;50.462;9.678;2023-01-15T02:39:44;0.10;;;0.10;;
15474;SDS011;7839;50.462;9.678;2023-01-15T02:46:26;0.00;;;0.00;;
15474;SDS011;7839;50.462;9.678;2023-01-15T02:53:08;1.03;;;0.10;;
15474;SDS011;7839;50.462;9.678;2023-01-15T02:59:50;0.00;;;0.00;;
15474;SDS011;7839;50.462;9.678;2023-01-15T03:20:30;0.20;;;0.20;;
15474;SDS011;7839;50.462;9.678;2023-01-15T03:27:12;2.57;;;1.47;;
15474;SDS011;7839;50.462;9.678;2023-01-15T03:33:52;0.90;;;0.90;;
15474;SDS011;7839;50.462;9.678;2023-01-15T03:40:34;0.30;;;0.30;;
15474;SDS011;7839;50.462;9.678;2023-01-15T03:47:23;0.00;;;0.00;;
15474;SDS011;7839;50.462;9.678;2023-01-15T03:54:09;0.20;;;0.10;;
15474;SDS011;7839;50.462;9.678;2023-01-15T04:00:57;0.17;;;0.17;;
15474;SDS011;7839;50.462;9.678;2023-01-15T04:07:38;0.27;;;0.20;;
15474;SDS011;7839;50.462;9.678;2023-01-15T04:14:19;0.20;;;0.20;;
15474;SDS011;7839;50.462;9.678;2023-01-15T04:20:59;0.10;;;0.10;;
15474;SDS011;7839;50.462;9.678;2023-01-15T04:27:40;0.10;;;0.10;;
15474;SDS011;7839;50.462;9.678;2023-01-15T04:34:20;0.00;;;0.00;;
15474;SDS011;7839;50.462;9.678;2023-01-15T04:41:01;0.00;;;0.00;;
15474;SDS011;7839;50.462;9.678;2023-01-15T04:48:00;0.10;;;0.10;;
15474;SDS011;7839;50.462;9.678;2023-01-15T04:54:40;0.10;;;0.10;;
15474;SDS011;7839;50.462;9.678;2023-01-15T05:01:20;0.17;;;0.10;;
15474;SDS011;7839;50.462;9.678;2023-01-15T05:08:00;0.10;;;0.10;;
15474;SDS011;7839;50.462;9.678;2023-01-15T05:14:41;0.97;;;0.20;;
15474;SDS011;7839;50.462;9.678;2023-01-15T05:21:25;0.20;;;0.20;;
15474;SDS011;7839;50.462;9.678;2023-01-15T05:28:08;0.10;;;0.10;;
15474;SDS011;7839;50.462;9.678;2023-01-15T05:34:48;0.20;;;0.20;;
15474;SDS011;7839;50.462;9.678;2023-01-15T05:41:28;0.10;;;0.10;;
15474;SDS011;7839;50.462;9.678;2023-01-15T05:48:30;0.07;;;0.07;;
15474;SDS011;7839;50.462;9.678;2023-01-15T05:55:10;0.10;;;0.10;;
15474;SDS011;7839;50.462;9.678;2023-01-15T06:01:51;0.00;;;0.00;;
15474;SDS011;7839;50.462;9.678;2023-01-15T06:08:31;0.10;;;0.10;;
15474;SDS011;7839;50.462;9.678;2023-01-15T06:15:11;0.00;;;0.00;;
15474;SDS011;7839;50.462;9.678;2023-01-15T06:21:51;0.33;;;0.20;;
15474;SDS011;7839;50.462;9.678;2023-01-15T06:28:32;0.10;;;0.10;;
15474;SDS011;7839;50.462;9.678;2023-01-15T06:35:13;0.00;;;0.00;;
15474;SDS011;7839;50.462;9.678;2023-01-15T06:41:53;0.10;;;0.10;;
15474;SDS011;7839;50.462;9.678;2023-01-15T06:48:52;0.10;;;0.10;;
15474;SDS011;7839;50.462;9.678;2023-01-15T06:55:33;0.07;;;0.07;;
15474;SDS011;7839;50.462;9.678;2023-01-15T07:02:14;0.10;;;0.10;;
15474;SDS011;7839;50.462;9.678;2023-01-15T07:08:54;0.63;;;0.00;;
15474;SDS011;7839;50.462;9.678;2023-01-15T07:15:36;0.00;;;0.00;;
15474;SDS011;7839;50.462;9.678;2023-01-15T07:22:17;0.10;;;0.10;;
15474;SDS011;7839;50.462;9.678;2023-01-15T07:28:57;0.20;;;0.20;;
15474;SDS011;7839;50.462;9.678;2023-01-15T07:35:38;0.10;;;0.10;;
15474;SDS011;7839;50.462;9.678;2023-01-15T07:42:18;0.10;;;0.10;;
15474;SDS011;7839;50.462;9.678;2023-01-15T07:49:17;0.10;;;0.10;;
15474;SDS011;7839;50.462;9.678;2023-01-15T07:56:16;0.83;;;0.10;;
15474;SDS011;7839;50.462;9.678;2023-01-15T08:02:56;0.00;;;0.00;;
15474;SDS011;7839;50.462;9.678;2023-01-15T08:09:37;0.20;;;0.10;;
15474;SDS011;7839;50.462;9.678;2023-01-15T08:16:17;0.55;;;0.30;;
15474;SDS011;7839;50.462;9.678;2023-01-15T08:22:59;0.20;;;0.20;;
15474;SDS011;7839;50.462;9.678;2023-01-15T08:29:39;0.30;;;0.30;;
15474;SDS011;7839;50.462;9.678;2023-01-15T08:36:20;0.10;;;0.10;;
15474;SDS011;7839;50.462;9.678;2023-01-15T08:43:00;0.40;;;0.20;;
15474;SDS011;7839;50.462;9.678;2023-01-15T08:49:41;0.30;;;0.30;;
15474;SDS011;7839;50.462;9.678;2023-01-15T08:56:21;0.53;;;0.40;;
15474;SDS011;7839;50.462;9.678;2023-01-15T09:03:02;0.50;;;0.50;;
15474;SDS011;7839;50.462;9.678;2023-01-15T09:09:42;1.20;;;0.70;;
15474;SDS011;7839;50.462;9.678;2023-01-15T09:16:23;0.70;;;0.70;;
15474;SDS011;7839;50.462;9.678;2023-01-15T09:23:05;0.77;;;0.77;;
15474;SDS011;7839;50.462;9.678;2023-01-15T09:29:45;0.50;;;0.50;;
15474;SDS011;7839;50.462;9.678;2023-01-15T09:43:14;0.40;;;0.40;;
15474;SDS011;7839;50.462;9.678;2023-01-15T09:50:08;0.47;;;0.47;;
15474;SDS011;7839;50.462;9.678;2023-01-15T09:56:52;0.63;;;0.63;;
15474;SDS011;7839;50.462;9.678;2023-01-15T10:03:35;0.50;;;0.50;;
15474;SDS011;7839;50.462;9.678;2023-01-15T10:10:21;0.40;;;0.40;;
15474;SDS011;7839;50.462;9.678;2023-01-15T10:17:04;0.30;;;0.30;;
15474;SDS011;7839;50.462;9.678;2023-01-15T10:30:46;0.57;;;0.57;;
15474;SDS011;7839;50.462;9.678;2023-01-15T10:50:53;0.70;;;0.70;;
15474;SDS011;7839;50.462;9.678;2023-01-15T11:04:25;1.33;;;1.00;;
15474;SDS011;7839;50.462;9.678;2023-01-15T11:17:59;0.87;;;0.87;;
15474;SDS011;7839;50.462;9.678;2023-01-15T11:24:59;0.70;;;0.70;;
15474;SDS011;7839;50.462;9.678;2023-01-15T11:31:40;0.73;;;0.73;;
15474;SDS011;7839;50.462;9.678;2023-01-15T11:38:20;0.60;;;0.60;;
15474;SDS011;7839;50.462;9.678;2023-01-15T11:45:10;0.60;;;0.60;;
15474;SDS011;7839;50.462;9.678;2023-01-15T11:52:10;0.80;;;0.80;;
15474;SDS011;7839;50.462;9.678;2023-01-15T11:58:52;0.73;;;0.73;;
15474;SDS011;7839;50.462;9.678;2023-01-15T12:05:33;1.30;;;1.20;;
15474;SDS011;7839;50.462;9.678;2023-01-15T12:19:06;1.43;;;0.90;;
15474;SDS011;7839;50.462;9.678;2023-01-15T12:32:36;1.20;;;1.10;;
15474;SDS011;7839;50.462;9.678;2023-01-15T12:45:59;2.20;;;1.10;;
15474;SDS011;7839;50.462;9.678;2023-01-15T12:52:42;1.00;;;0.90;;
15474;SDS011;7839;50.462;9.678;2023-01-15T12:59:29;0.73;;;0.73;;
15474;SDS011;7839;50.462;9.678;2023-01-15T13:06:13;1.13;;;0.93;;
15474;SDS011;7839;50.462;9.678;2023-01-15T13:12:58;1.00;;;0.70;;
15474;SDS011;7839;50.462;9.678;2023-01-15T13:33:14;0.83;;;0.77;;
15474;SDS011;7839;50.462;9.678;2023-01-15T13:40:19;0.80;;;0.70;;
15474;SDS011;7839;50.462;9.678;2023-01-15T13:46:58;1.57;;;0.60;;
15474;SDS011;7839;50.462;9.678;2023-01-15T13:53:43;0.83;;;0.73;;
15474;SDS011;7839;50.462;9.678;2023-01-15T14:07:15;0.50;;;0.50;;
15474;SDS011;7839;50.462;9.678;2023-01-15T14:20:37;1.33;;;0.43;;
15474;SDS011;7839;50.462;9.678;2023-01-15T14:34:23;0.90;;;0.77;;
15474;SDS011;7839;50.462;9.678;2023-01-15T14:41:05;1.60;;;0.80;;
15474;SDS011;7839;50.462;9.678;2023-01-15T14:47:47;0.40;;;0.40;;
15474;SDS011;7839;50.462;9.678;2023-01-15T14:54:28;0.63;;;0.63;;
15474;SDS011;7839;50.462;9.678;2023-01-15T15:01:32;1.97;;;1.10;;
15474;SDS011;7839;50.462;9.678;2023-01-15T15:08:13;1.47;;;0.57;;
15474;SDS011;7839;50.462;9.678;2023-01-15T15:21:39;0.93;;;0.67;;
15474;SDS011;7839;50.462;9.678;2023-01-15T15:28:20;3.23;;;1.43;;
15474;SDS011;7839;50.462;9.678;2023-01-15T15:35:00;1.83;;;0.80;;
15474;SDS011;7839;50.462;9.678;2023-01-15T15:41:41;1.47;;;0.60;;
15474;SDS011;7839;50.462;9.678;2023-01-15T15:48:43;0.80;;;0.70;;
15474;SDS011;7839;50.462;9.678;2023-01-15T15:55:39;0.70;;;0.60;;
15474;SDS011;7839;50.462;9.678;2023-01-15T16:02:24;1.70;;;0.57;;
15474;SDS011;7839;50.462;9.678;2023-01-15T16:09:07;0.60;;;0.60;;
15474;SDS011;7839;50.462;9.678;2023-01-15T16:15:48;0.63;;;0.50;;
15474;SDS011;7839;50.462;9.678;2023-01-15T16:22:29;0.63;;;0.60;;
15474;SDS011;7839;50.462;9.678;2023-01-15T16:29:18;2.23;;;0.67;;
15474;SDS011;7839;50.462;9.678;2023-01-15T16:35:59;0.83;;;0.73;;
15474;SDS011;7839;50.462;9.678;2023-01-15T16:42:43;3.37;;;0.77;;
15474;SDS011;7839;50.462;9.678;2023-01-15T16:49:24;1.80;;;0.80;;
15474;SDS011;7839;50.462;9.678;2023-01-15T16:56:22;3.60;;;1.10;;
15474;SDS011;7839;50.462;9.678;2023-01-15T17:03:05;3.17;;;0.90;;
15474;SDS011;7839;50.462;9.678;2023-01-15T17:09:50;2.07;;;1.40;;
15474;SDS011;7839;50.462;9.678;2023-01-15T17:16:31;1.30;;;1.00;;
15474;SDS011;7839;50.462;9.678;2023-01-15T17:23:11;0.60;;;0.60;;
15474;SDS011;7839;50.462;9.678;2023-01-15T17:29:52;0.77;;;0.40;;
15474;SDS011;7839;50.462;9.678;2023-01-15T17:36:33;1.07;;;0.57;;
15474;SDS011;7839;50.462;9.678;2023-01-15T17:43:13;1.63;;;0.87;;
15474;SDS011;7839;50.462;9.678;2023-01-15T17:49:54;2.37;;;0.77;;
15474;SDS011;7839;50.462;9.678;2023-01-15T17:56:34;4.13;;;0.90;;
15474;SDS011;7839;50.462;9.678;2023-01-15T18:03:34;1.87;;;0.83;;
15474;SDS011;7839;50.462;9.678;2023-01-15T18:10:33;0.83;;;0.70;;
15474;SDS011;7839;50.462;9.678;2023-01-15T18:17:14;0.93;;;0.70;;
15474;SDS011;7839;50.462;9.678;2023-01-15T18:23:54;2.30;;;0.77;;
15474;SDS011;7839;50.462;9.678;2023-01-15T18:30:35;1.50;;;1.10;;
15474;SDS011;7839;50.462;9.678;2023-01-15T18:37:15;0.87;;;0.70;;
15474;SDS011;7839;50.462;9.678;2023-01-15T18:43:55;1.37;;;0.50;;
15474;SDS011;7839;50.462;9.678;2023-01-15T18:50:54;1.47;;;0.70;;
15474;SDS011;7839;50.462;9.678;2023-01-15T18:57:34;3.00;;;0.80;;
15474;SDS011;7839;50.462;9.678;2023-01-15T19:04:15;1.47;;;0.77;;
15474;SDS011;7839;50.462;9.678;2023-01-15T19:10:55;1.43;;;0.60;;
15474;SDS011;7839;50.462;9.678;2023-01-15T19:17:35;1.37;;;0.70;;
15474;SDS011;7839;50.462;9.678;2023-01-15T19:24:34;1.00;;;0.70;;
15474;SDS011;7839;50.462;9.678;2023-01-15T19:31:15;1.30;;;0.60;;
15474;SDS011;7839;50.462;9.678;2023-01-15T19:38:18;0.80;;;0.70;;
15474;SDS011;7839;50.462;9.678;2023-01-15T19:44:58;1.97;;;0.80;;
15474;SDS011;7839;50.462;9.678;2023-01-15T19:51:57;0.60;;;0.50;;
15474;SDS011;7839;50.462;9.678;2023-01-15T19:58:56;0.93;;;0.83;;
15474;SDS011;7839;50.462;9.678;2023-01-15T20:05:38;1.67;;;1.07;;
15474;SDS011;7839;50.462;9.678;2023-01-15T20:12:18;1.70;;;1.40;;
15474;SDS011;7839;50.462;9.678;2023-01-15T20:19:17;1.50;;;0.90;;
15474;SDS011;7839;50.462;9.678;2023-01-15T20:26:04;1.00;;;0.90;;
15474;SDS011;7839;50.462;9.678;2023-01-15T20:32:45;1.80;;;1.07;;
15474;SDS011;7839;50.462;9.678;2023-01-15T20:39:27;0.93;;;0.70;;
15474;SDS011;7839;50.462;9.678;2023-01-15T20:46:10;0.93;;;0.70;;
15474;SDS011;7839;50.462;9.678;2023-01-15T20:52:52;2.47;;;0.87;;
15474;SDS011;7839;50.462;9.678;2023-01-15T20:59:33;1.63;;;1.00;;
15474;SDS011;7839;50.462;9.678;2023-01-15T21:06:13;2.00;;;1.07;;
15474;SDS011;7839;50.462;9.678;2023-01-15T21:12:54;1.07;;;0.90;;
15474;SDS011;7839;50.462;9.678;2023-01-15T21:19:34;1.67;;;0.90;;
15474;SDS011;7839;50.462;9.678;2023-01-15T21:26:15;1.70;;;0.80;;
15474;SDS011;7839;50.462;9.678;2023-01-15T21:32:55;1.83;;;0.87;;
15474;SDS011;7839;50.462;9.678;2023-01-15T21:39:35;1.07;;;0.93;;
15474;SDS011;7839;50.462;9.678;2023-01-15T21:46:17;1.87;;;1.00;;
15474;SDS011;7839;50.462;9.678;2023-01-15T21:53:00;1.00;;;0.87;;
15474;SDS011;7839;50.462;9.678;2023-01-15T21:59:40;0.80;;;0.80;;
15474;SDS011;7839;50.462;9.678;2023-01-15T22:06:20;1.47;;;0.83;;
15474;SDS011;7839;50.462;9.678;2023-01-15T22:13:00;1.53;;;1.00;;
15474;SDS011;7839;50.462;9.678;2023-01-15T22:19:41;1.40;;;0.80;;
15474;SDS011;7839;50.462;9.678;2023-01-15T22:26:21;2.73;;;1.23;;
15474;SDS011;7839;50.462;9.678;2023-01-15T22:33:01;1.43;;;1.10;;
15474;SDS011;7839;50.462;9.678;2023-01-15T22:39:42;2.03;;;0.90;;
15474;SDS011;7839;50.462;9.678;2023-01-15T22:46:22;0.93;;;0.80;;
15474;SDS011;7839;50.462;9.678;2023-01-15T22:53:02;1.57;;;0.90;;
15474;SDS011;7839;50.462;9.678;2023-01-15T22:59:42;2.00;;;0.70;;
15474;SDS011;7839;50.462;9.678;2023-01-15T23:06:23;1.03;;;0.70;;
15474;SDS011;7839;50.462;9.678;2023-01-15T23:13:04;1.13;;;0.57;;
15474;SDS011;7839;50.462;9.678;2023-01-15T23:19:45;1.07;;;0.63;;
15474;SDS011;7839;50.462;9.678;2023-01-15T23:26:29;0.80;;;0.80;;
15474;SDS011;7839;50.462;9.678;2023-01-15T23:33:10;1.17;;;0.60;;
15474;SDS011;7839;50.462;9.678;2023-01-15T23:39:50;0.70;;;0.60;;
15474;SDS011;7839;50.462;9.678;2023-01-15T23:46:31;0.60;;;0.60;;
15474;SDS011;7839;50.462;9.678;2023-01-15T23:53:14;1.23;;;0.60;;
15474;SDS011;7839;50.462;9.678;2023-01-15T23:59:54;1.33;;;0.73;;
